Time;durP1;ratioP1;P1;durP2;ratioP2;P2;SDS_P1;SDS_P2;PMS_P1;PMS_P2;Temp;Humidity;BMP_temperature;BMP_pressure;BME280_temperature;BME280_humidity;BME280_pressure;Samples;Min_cycle;Max_cycle;Signal;HPM_P1;HPM_P2
2022/09/28 00:01:42;;;;;;;7.20;6.50;;;;;;;8.30;92.79;98295.00;5101200;28;20493;-67
2022/09/28 00:04:09;;;;;;;8.20;6.23;;;;;;;8.38;92.48;98289.63;5102376;28;20933;-66
2022/09/28 00:06:37;;;;;;;7.67;6.13;;;;;;;8.40;92.34;98292.13;5101798;28;20518;-67
2022/09/28 00:09:04;;;;;;;9.03;6.40;;;;;;;8.38;92.47;98286.97;5102097;28;20463;-68
2022/09/28 00:11:32;;;;;;;9.43;6.20;;;;;;;8.33;92.83;98280.50;5101925;28;20463;-66
2022/09/28 00:14:02;;;;;;;10.30;6.33;;;;;;;8.41;92.33;98280.47;5102096;28;20482;-66
2022/09/28 00:16:32;;;;;;;6.17;5.60;;;;;;;8.39;91.68;98271.84;5101256;28;20479;-66
2022/09/28 00:18:59;;;;;;;5.27;4.77;;;;;;;8.33;91.56;98269.84;5101292;28;20475;-67
2022/09/28 00:21:27;;;;;;;5.27;4.50;;;;;;;8.28;92.27;98265.03;5101736;28;20501;-66
2022/09/28 00:24:13;;;;;;;6.07;5.00;;;;;;;8.26;92.16;98262.59;5102479;28;20454;-66
2022/09/28 00:26:42;;;;;;;4.77;4.27;;;;;;;8.20;92.24;98259.78;5101524;28;21147;-67
2022/09/28 00:29:17;;;;;;;6.03;4.10;;;;;;;8.10;92.54;98257.31;5102198;28;20822;-66
2022/09/28 00:31:44;;;;;;;4.60;3.53;;;;;;;8.23;92.00;98248.78;5101224;28;20996;-67
2022/09/28 00:34:10;;;;;;;4.63;3.50;;;;;;;8.27;91.84;98242.94;5101944;28;20482;-67
2022/09/28 00:36:37;;;;;;;5.93;3.50;;;;;;;8.31;91.70;98238.06;5100904;28;20506;-67
2022/09/28 00:39:06;;;;;;;4.27;2.30;;;;;;;8.01;91.54;98231.78;5102241;28;20454;-66
2022/09/28 00:41:34;;;;;;;3.00;2.80;;;;;;;8.18;92.08;98237.84;5101232;28;20490;-66
2022/09/28 00:44:37;;;;;;;3.20;2.90;;;;;;;8.17;92.27;98234.34;5101665;28;21211;-67
2022/09/28 00:47:08;;;;;;;5.87;2.87;;;;;;;8.25;92.62;98230.81;5100380;28;20486;-67
2022/09/28 00:49:40;;;;;;;3.10;2.67;;;;;;;8.20;92.46;98225.19;5100961;28;20451;-67
2022/09/28 00:52:08;;;;;;;3.67;3.37;;;;;;;8.11;92.67;98219.91;5100711;28;20518;-67
2022/09/28 00:54:36;;;;;;;3.50;2.90;;;;;;;8.14;93.05;98220.53;5100750;28;20448;-67
2022/09/28 00:57:04;;;;;;;4.03;2.73;;;;;;;8.18;92.92;98214.72;5084670;28;20475;-67
2022/09/28 00:59:31;;;;;;;3.33;2.90;;;;;;;8.24;92.63;98207.84;5101434;28;20439;-68
2022/09/28 01:01:58;;;;;;;4.00;3.70;;;;;;;8.19;92.96;98204.88;5100173;28;20475;-67
2022/09/28 01:04:24;;;;;;;3.33;3.03;;;;;;;8.19;93.24;98203.03;5099822;28;20881;-68
2022/09/28 01:06:51;;;;;;;3.13;2.93;;;;;;;8.10;93.93;98196.13;5100973;28;20606;-68
2022/09/28 01:09:18;;;;;;;5.80;3.80;;;;;;;8.28;93.79;98199.34;5101370;28;20486;-68
2022/09/28 01:11:46;;;;;;;5.83;3.73;;;;;;;7.99;93.94;98193.88;5101258;28;20454;-68
2022/09/28 01:14:14;;;;;;;4.10;3.70;;;;;;;8.06;93.75;98185.00;5083304;28;20496;-68
2022/09/28 01:16:46;;;;;;;6.67;3.97;;;;;;;8.05;94.13;98182.50;5099833;28;20547;-68
2022/09/28 01:19:24;;;;;;;6.07;4.13;;;;;;;8.16;93.98;98179.47;5100624;28;20447;-68
2022/09/28 01:21:53;;;;;;;3.80;3.50;;;;;;;8.14;94.24;98178.78;5100228;28;20502;-67
2022/09/28 01:24:32;;;;;;;5.17;4.67;;;;;;;8.13;94.13;98174.47;5101213;28;21002;-68
2022/09/28 01:27:10;;;;;;;7.33;4.80;;;;;;;8.14;94.12;98176.13;5083266;28;20479;-68
2022/09/28 01:29:45;;;;;;;5.50;5.00;;;;;;;8.07;94.62;98168.03;5101103;28;20451;-67
2022/09/28 01:32:17;;;;;;;8.73;5.50;;;;;;;8.11;95.01;98166.66;5100470;28;20481;-66
2022/09/28 01:34:47;;;;;;;5.97;5.37;;;;;;;8.13;94.63;98155.84;5101329;28;21056;-66
2022/09/28 01:37:15;;;;;;;7.57;5.63;;;;;;;8.09;95.13;98167.88;5101038;28;20486;-66
2022/09/28 01:39:46;;;;;;;6.27;5.53;;;;;;;8.06;94.76;98165.53;5101991;28;20455;-66
2022/09/28 01:42:18;;;;;;;5.90;5.27;;;;;;;8.15;95.07;98161.81;5100898;28;20490;-66
2022/09/28 01:44:47;;;;;;;7.17;5.50;;;;;;;8.13;94.60;98155.84;5100963;28;20479;-66
2022/09/28 01:47:15;;;;;;;7.70;5.37;;;;;;;8.14;95.08;98160.16;5100048;28;20471;-67
2022/09/28 01:49:45;;;;;;;6.23;5.63;;;;;;;8.03;94.96;98150.75;5100301;28;20494;-69
2022/09/28 01:52:16;;;;;;;6.60;5.37;;;;;;;8.26;95.05;98153.44;5099771;28;20923;-67
2022/09/28 01:54:45;;;;;;;11.07;6.00;;;;;;;8.24;95.33;98163.41;5100026;28;20448;-68
2022/09/28 01:57:17;;;;;;;10.70;6.20;;;;;;;8.21;95.16;98161.13;5099495;28;20551;-68
2022/09/28 01:59:46;;;;;;;8.57;5.30;;;;;;;8.16;95.45;98158.16;5086226;28;20496;-69
2022/09/28 02:02:17;;;;;;;9.40;5.90;;;;;;;8.20;95.69;98154.13;5099084;28;21009;-68
2022/09/28 02:04:47;;;;;;;7.60;6.20;;;;;;;8.22;95.78;98161.94;5099982;28;21237;-68
2022/09/28 02:07:17;;;;;;;6.53;5.40;;;;;;;8.28;95.70;98159.41;5099510;28;20544;-67
2022/09/28 02:09:47;;;;;;;9.57;6.13;;;;;;;8.36;95.77;98155.03;5100266;28;20447;-67
2022/09/28 02:12:19;;;;;;;7.23;5.13;;;;;;;8.37;95.21;98160.19;5099495;28;20479;-67
2022/09/28 02:14:47;;;;;;;6.87;6.17;;;;;;;8.26;95.10;98156.09;5100040;28;20455;-67
2022/09/28 02:17:14;;;;;;;6.83;5.90;;;;;;;8.25;95.32;98159.75;5097805;28;20999;-66
2022/09/28 02:19:41;;;;;;;10.47;6.03;;;;;;;8.16;95.34;98155.50;5100086;28;20444;-67
2022/09/28 02:22:16;;;;;;;7.37;5.70;;;;;;;8.19;95.62;98155.13;5099213;28;20503;-68
2022/09/28 02:24:46;;;;;;;8.00;6.27;;;;;;;8.07;95.61;98153.88;5100287;28;20486;-67
2022/09/28 02:27:16;;;;;;;7.27;6.57;;;;;;;7.97;96.39;98153.28;5099438;28;20506;-69
2022/09/28 02:29:43;;;;;;;7.03;6.33;;;;;;;8.02;96.12;98149.09;5099873;28;20473;-69
2022/09/28 02:32:10;;;;;;;7.30;5.70;;;;;;;8.14;96.24;98157.47;5098226;28;20678;-69
2022/09/28 02:34:36;;;;;;;7.40;6.30;;;;;;;8.14;95.86;98152.16;5099533;28;20464;-70
2022/09/28 02:37:03;;;;;;;6.50;5.90;;;;;;;8.10;96.19;98158.84;5099261;28;20574;-69
2022/09/28 02:39:30;;;;;;;9.20;7.23;;;;;;;8.02;96.27;98154.44;5099599;28;20505;-69
2022/09/28 02:42:03;;;;;;;11.17;7.13;;;;;;;7.96;96.51;98164.94;5098961;28;20496;-70
2022/09/28 02:44:42;;;;;;;10.07;7.20;;;;;;;7.97;96.82;98162.09;5099432;28;20535;-70
2022/09/28 02:47:16;;;;;;;8.20;5.53;;;;;;;8.03;96.57;98158.72;5098408;28;20507;-70
2022/09/28 02:49:48;;;;;;;10.33;7.10;;;;;;;8.03;96.66;98169.38;5099272;28;20513;-69
2022/09/28 02:52:28;;;;;;;8.97;6.80;;;;;;;8.00;96.60;98160.91;5098650;28;20499;-71
2022/09/28 02:55:13;;;;;;;9.37;7.20;;;;;;;8.03;96.50;98163.22;5098362;28;20443;-71
2022/09/28 02:57:48;;;;;;;7.83;7.03;;;;;;;7.95;96.86;98166.78;5098743;28;20480;-68
2022/09/28 03:00:18;;;;;;;9.03;6.93;;;;;;;7.96;96.93;98171.09;5099021;28;20494;-70
2022/09/28 03:02:51;;;;;;;8.33;7.53;;;;;;;8.02;97.32;98159.75;5099129;28;20455;-70
2022/09/28 03:05:20;;;;;;;8.80;7.20;;;;;;;8.09;97.28;98167.88;5099190;28;20475;-70
2022/09/28 03:07:52;;;;;;;10.80;7.60;;;;;;;8.05;97.20;98163.88;5098473;28;20510;-68
2022/09/28 03:10:24;;;;;;;9.40;7.90;;;;;;;7.97;97.43;98170.09;5083075;28;20452;-69
2022/09/28 03:12:51;;;;;;;11.53;8.80;;;;;;;7.96;97.82;98168.41;5099230;28;20460;-67
2022/09/28 03:15:24;;;;;;;11.37;9.00;;;;;;;7.95;97.52;98165.94;5098615;28;20490;-68
2022/09/28 03:17:51;;;;;;;16.50;9.60;;;;;;;8.00;97.78;98166.22;5097286;28;20530;-69
2022/09/28 03:20:18;;;;;;;12.80;8.40;;;;;;;8.01;97.50;98168.72;5099090;28;21056;-70
2022/09/28 03:22:44;;;;;;;13.00;8.50;;;;;;;8.07;97.70;98159.19;5099547;28;20470;-68
2022/09/28 03:25:11;;;;;;;14.63;8.80;;;;;;;8.15;97.48;98163.66;5098446;28;20490;-69
2022/09/28 03:27:37;;;;;;;12.07;7.70;;;;;;;8.16;97.39;98162.63;5098519;28;20456;-68
2022/09/28 03:30:05;;;;;;;10.87;8.93;;;;;;;8.18;97.37;98161.47;5098896;28;20462;-69
2022/09/28 03:32:33;;;;;;;12.37;9.30;;;;;;;8.16;97.13;98163.50;5097186;28;20493;-69
2022/09/28 03:35:00;;;;;;;10.87;8.87;;;;;;;8.13;96.93;98171.00;5099171;28;20478;-69
2022/09/28 03:37:26;;;;;;;10.20;7.90;;;;;;;8.15;97.21;98164.47;5098168;28;20483;-69
2022/09/28 03:39:53;;;;;;;9.40;7.30;;;;;;;8.06;96.60;98161.03;5098401;28;20454;-70
2022/09/28 03:42:20;;;;;;;10.63;7.20;;;;;;;8.13;96.49;98165.69;5098418;28;20483;-70
2022/09/28 03:44:46;;;;;;;8.93;7.63;;;;;;;8.05;96.43;98162.03;5098133;28;20919;-68
2022/09/28 03:47:14;;;;;;;12.67;7.70;;;;;;;8.03;96.23;98153.41;5097303;28;20542;-66
2022/09/28 03:49:42;;;;;;;10.33;8.13;;;;;;;8.09;96.44;98168.69;5098143;28;20451;-67
2022/09/28 03:52:09;;;;;;;12.60;9.43;;;;;;;8.13;96.18;98163.00;5098014;28;20513;-66
2022/09/28 03:54:36;;;;;;;12.43;9.93;;;;;;;8.06;95.76;98168.22;5097805;28;20486;-66
2022/09/28 03:57:03;;;;;;;14.97;10.03;;;;;;;8.06;95.64;98160.22;5098107;28;20506;-67
2022/09/28 03:59:29;;;;;;;15.03;9.67;;;;;;;8.06;95.64;98166.38;5098743;28;20488;-67
2022/09/28 04:01:56;;;;;;;14.73;8.90;;;;;;;8.05;95.49;98159.38;5096005;28;20536;-68
2022/09/28 04:04:23;;;;;;;13.60;10.70;;;;;;;8.03;95.91;98155.25;5096579;28;20455;-68
2022/09/28 04:06:51;;;;;;;14.97;9.60;;;;;;;8.08;95.55;98163.53;5096323;28;20483;-68
2022/09/28 04:09:18;;;;;;;16.87;11.87;;;;;;;8.09;95.81;98157.22;5098017;28;20459;-68
2022/09/28 04:11:44;;;;;;;19.33;13.03;;;;;;;8.07;95.54;98156.53;5098299;28;20982;-69
2022/09/28 04:14:11;;;;;;;23.03;14.87;;;;;;;8.02;95.67;98146.44;5097241;28;20452;-69
2022/09/28 04:16:38;;;;;;;21.37;13.63;;;;;;;8.07;95.52;98153.88;5097162;28;20525;-67
2022/09/28 04:19:04;;;;;;;24.30;13.83;;;;;;;8.07;95.64;98156.53;5096977;28;20518;-68
2022/09/28 04:21:31;;;;;;;24.63;14.47;;;;;;;8.05;95.94;98150.56;5097962;28;21032;-68
2022/09/28 04:23:59;;;;;;;21.47;15.30;;;;;;;8.07;95.96;98153.88;5098313;28;20482;-68
2022/09/28 04:26:27;;;;;;;23.37;15.50;;;;;;;8.08;95.71;98150.22;5094177;28;20475;-68
2022/09/28 04:31:39;;;;;;;28.17;17.77;;;;;;;8.01;95.86;98146.63;5097031;28;20501;-68
2022/09/28 04:34:05;;;;;;;25.30;18.03;;;;;;;8.01;96.00;98152.75;5094553;28;20459;-71
2022/09/28 04:36:32;;;;;;;27.47;19.30;;;;;;;7.96;96.12;98151.63;5096683;28;20537;-71
2022/09/28 04:39:00;;;;;;;27.70;18.03;;;;;;;7.92;96.19;98154.63;5098056;28;20475;-71
2022/09/28 04:41:27;;;;;;;26.60;17.37;;;;;;;7.97;96.02;98151.47;5098624;28;21058;-71
2022/09/28 04:43:54;;;;;;;30.00;18.23;;;;;;;7.98;96.03;98152.28;5101216;28;20447;-72
2022/09/28 04:46:20;;;;;;;28.53;19.37;;;;;;;7.97;95.85;98147.94;5099339;28;20584;-71
2022/09/28 04:48:47;;;;;;;26.67;17.47;;;;;;;7.92;95.99;98149.31;5100616;28;20485;-72
2022/09/28 04:51:14;;;;;;;29.57;18.73;;;;;;;7.88;95.89;98157.81;5100861;28;20497;-72
2022/09/28 04:53:41;;;;;;;30.73;20.50;;;;;;;7.85;96.23;98150.22;5100652;28;20490;-71
2022/09/28 04:56:11;;;;;;;29.60;19.70;;;;;;;7.84;96.52;98159.19;5100389;28;20475;-71
2022/09/28 04:58:38;;;;;;;29.40;19.10;;;;;;;7.77;96.29;98159.03;5101018;28;20499;-71
2022/09/28 05:01:08;;;;;;;33.60;20.07;;;;;;;7.77;96.23;98160.88;5100088;28;20846;-72
2022/09/28 05:03:35;;;;;;;30.50;18.77;;;;;;;7.82;96.20;98163.84;5098982;28;20511;-71
2022/09/28 05:06:02;;;;;;;34.57;19.27;;;;;;;7.75;96.36;98166.38;5099830;28;20497;-68
2022/09/28 05:08:28;;;;;;;30.30;20.73;;;;;;;7.76;96.10;98167.19;5101521;28;20461;-69
2022/09/28 05:10:58;;;;;;;29.10;19.43;;;;;;;7.78;96.13;98165.19;5100343;28;20476;-68
2022/09/28 05:13:27;;;;;;;27.93;19.47;;;;;;;7.78;95.97;98171.34;5102056;28;20438;-70
2022/09/28 05:15:55;;;;;;;38.77;20.53;;;;;;;7.69;96.35;98172.38;5099159;28;20961;-74
2022/09/28 05:18:21;;;;;;;28.37;19.63;;;;;;;7.78;96.22;98175.81;5099520;28;20515;-77
2022/09/28 05:20:48;;;;;;;32.53;19.77;;;;;;;7.77;96.16;98177.66;5100565;28;20511;-72
2022/09/28 05:23:15;;;;;;;28.57;17.90;;;;;;;7.80;96.24;98176.50;5101301;28;20573;-76
2022/09/28 05:25:42;;;;;;;32.13;20.60;;;;;;;7.72;95.94;98174.69;5100078;28;20479;-76
2022/09/28 05:28:09;;;;;;;31.73;21.30;;;;;;;7.69;96.45;98180.34;5102102;28;20441;-74
2022/09/28 05:30:37;;;;;;;35.10;22.10;;;;;;;7.65;96.46;98181.72;5100404;28;21222;-75
2022/09/28 05:33:04;;;;;;;37.13;22.20;;;;;;;7.67;96.37;98182.34;5100190;28;21146;-76
2022/09/28 05:35:31;;;;;;;34.20;20.97;;;;;;;7.72;96.58;98175.53;5100037;28;20479;-73
2022/09/28 05:37:59;;;;;;;34.83;22.00;;;;;;;7.74;96.45;98185.97;5100139;28;20579;-73
2022/09/28 05:40:25;;;;;;;35.90;21.77;;;;;;;7.80;96.29;98179.16;5098817;28;20493;-76
2022/09/28 05:42:52;;;;;;;37.30;23.23;;;;;;;7.87;96.41;98186.25;5101141;28;20470;-73
2022/09/28 05:45:18;;;;;;;38.00;20.80;;;;;;;7.95;96.42;98180.09;5100035;28;20491;-75
2022/09/28 05:47:46;;;;;;;36.23;22.57;;;;;;;7.97;96.07;98172.75;5099034;28;20955;-75
2022/09/28 05:50:14;;;;;;;39.30;22.70;;;;;;;7.96;95.91;98179.06;5100015;28;20463;-74
2022/09/28 05:52:42;;;;;;;39.33;22.60;;;;;;;7.93;96.00;98184.72;5100328;28;20435;-73
2022/09/28 05:55:09;;;;;;;37.53;21.63;;;;;;;7.97;96.13;98183.41;5097626;28;20454;-70
2022/09/28 05:57:36;;;;;;;34.93;21.30;;;;;;;8.04;95.86;98183.53;5098160;28;20444;-71
2022/09/28 06:00:04;;;;;;;39.10;23.03;;;;;;;8.05;95.96;98185.97;5098249;28;20501;-74
2022/09/28 06:02:31;;;;;;;35.73;21.27;;;;;;;8.10;95.86;98183.63;5098788;28;21226;-76
2022/09/28 06:04:59;;;;;;;36.63;21.90;;;;;;;8.14;96.03;98192.09;5101279;28;20485;-72
2022/09/28 06:07:25;;;;;;;42.63;23.70;;;;;;;8.18;95.64;98184.59;5100659;28;20488;-74
2022/09/28 06:09:52;;;;;;;35.37;20.57;;;;;;;8.11;95.92;98192.47;5099901;28;20455;-74
2022/09/28 06:12:19;;;;;;;44.63;22.83;;;;;;;8.12;95.79;98196.75;5100794;28;21033;-69
2022/09/28 06:14:47;;;;;;;37.23;21.70;;;;;;;8.14;95.89;98189.44;5100784;28;20436;-74
2022/09/28 06:17:14;;;;;;;36.40;21.53;;;;;;;8.13;95.60;98186.97;5098923;28;20475;-74
2022/09/28 06:19:40;;;;;;;39.53;21.90;;;;;;;8.17;95.56;98194.41;5100186;28;21219;-76
2022/09/28 06:22:08;;;;;;;32.73;20.07;;;;;;;8.26;95.34;98195.19;5100917;28;21262;-75
2022/09/28 06:24:35;;;;;;;40.60;22.63;;;;;;;8.32;95.36;98196.34;5099509;28;20477;-74
2022/09/28 06:27:02;;;;;;;34.87;21.67;;;;;;;8.41;95.04;98195.25;5100502;28;20475;-75
2022/09/28 06:29:28;;;;;;;36.83;21.23;;;;;;;8.54;94.74;98192.88;5100355;28;21010;-74
2022/09/28 06:31:55;;;;;;;33.47;20.47;;;;;;;8.54;93.85;98198.19;5099022;28;20510;-72
2022/09/28 06:34:23;;;;;;;35.67;22.10;;;;;;;8.47;94.46;98200.75;5100441;28;20477;-73
2022/09/28 06:36:50;;;;;;;42.93;22.53;;;;;;;8.55;94.78;98207.00;5099051;28;20506;-73
2022/09/28 06:39:18;;;;;;;39.47;21.60;;;;;;;8.63;94.83;98205.09;5099428;28;20503;-74
2022/09/28 06:41:44;;;;;;;44.40;23.43;;;;;;;8.68;94.67;98217.91;5099778;28;20478;-76
2022/09/28 06:44:11;;;;;;;37.57;22.70;;;;;;;8.74;94.58;98216.34;5100274;28;20464;-74
2022/09/28 06:46:39;;;;;;;38.47;24.03;;;;;;;8.67;94.39;98214.38;5098111;28;21045;-74
2022/09/28 06:49:08;;;;;;;36.40;21.20;;;;;;;8.84;94.42;98222.28;5099816;28;20435;-73
2022/09/28 06:51:35;;;;;;;38.97;23.63;;;;;;;8.85;93.66;98219.44;5098860;28;20475;-74
2022/09/28 06:54:01;;;;;;;32.47;22.10;;;;;;;8.87;93.73;98224.59;5097815;28;20491;-73
2022/09/28 06:56:29;;;;;;;39.83;23.50;;;;;;;8.79;93.69;98216.66;5097093;28;20507;-73
2022/09/28 06:58:56;;;;;;;37.07;22.17;;;;;;;8.77;93.59;98224.00;5099724;28;20482;-73
2022/09/28 07:01:23;;;;;;;36.97;23.10;;;;;;;8.75;93.39;98226.84;5097010;28;20506;-72
2022/09/28 07:03:49;;;;;;;40.03;24.00;;;;;;;8.72;93.49;98227.19;5098417;28;20448;-76
2022/09/28 07:06:17;;;;;;;38.93;21.27;;;;;;;8.42;94.12;98224.41;5098514;28;20494;-76
2022/09/28 07:08:43;;;;;;;39.00;21.47;;;;;;;8.52;94.20;98226.00;5098936;28;20439;-73
2022/09/28 07:11:11;;;;;;;33.90;21.60;;;;;;;8.69;93.78;98232.88;5098517;28;20489;-74
2022/09/28 07:13:39;;;;;;;33.43;21.50;;;;;;;8.71;93.88;98230.84;5099144;28;20451;-71
2022/09/28 07:16:06;;;;;;;39.37;20.63;;;;;;;8.80;93.44;98231.59;5098025;28;21056;-72
2022/09/28 07:18:33;;;;;;;35.37;21.70;;;;;;;8.89;93.63;98235.88;5098579;28;20491;-76
2022/09/28 07:21:01;;;;;;;39.93;24.40;;;;;;;9.07;93.06;98237.41;5097977;28;20499;-75
2022/09/28 07:23:29;;;;;;;33.93;22.40;;;;;;;9.21;93.04;98237.41;5098863;28;20491;-75
2022/09/28 07:25:56;;;;;;;37.40;22.03;;;;;;;9.34;92.44;98242.13;5098287;28;20603;-76
2022/09/28 07:28:24;;;;;;;34.53;23.13;;;;;;;9.36;90.91;98241.97;5099156;28;20534;-75
2022/09/28 07:30:52;;;;;;;36.20;22.37;;;;;;;9.51;91.26;98242.81;5097225;28;20459;-76
2022/09/28 07:33:18;;;;;;;36.27;21.53;;;;;;;9.65;90.47;98242.97;5098763;28;20444;-73
2022/09/28 07:35:52;;;;;;;38.13;23.70;;;;;;;9.78;89.97;98249.31;5097468;28;20479;-78
2022/09/28 07:38:19;;;;;;;36.83;22.00;;;;;;;9.94;89.64;98250.94;5098800;28;20528;-76
2022/09/28 07:43:30;;;;;;;30.40;20.97;;;;;;;9.98;88.26;98248.75;5098904;28;20461;-76
2022/09/28 07:45:58;;;;;;;30.73;20.43;;;;;;;9.94;88.05;98242.94;5097728;28;20471;-74
2022/09/28 07:48:25;;;;;;;33.00;20.50;;;;;;;9.95;87.80;98257.16;5098018;28;20516;-72
2022/09/28 07:50:52;;;;;;;31.33;19.43;;;;;;;10.17;87.08;98260.69;5096304;28;21019;-71
2022/09/28 07:53:19;;;;;;;30.70;19.00;;;;;;;10.33;85.74;98259.69;5097372;28;20448;-72
2022/09/28 07:55:50;;;;;;;26.57;18.87;;;;;;;10.12;85.09;98255.91;5097867;28;20505;-69
2022/09/28 07:58:18;;;;;;;24.70;17.13;;;;;;;9.86;85.89;98260.91;5098889;28;20505;-71
2022/09/28 08:00:46;;;;;;;26.70;18.13;;;;;;;9.66;86.75;98269.47;5096950;28;20474;-71
2022/09/28 08:03:14;;;;;;;27.83;17.53;;;;;;;9.82;87.42;98271.13;5098204;28;20455;-71
2022/09/28 08:05:41;;;;;;;23.80;16.10;;;;;;;9.61;88.12;98269.19;5095592;28;20498;-69
2022/09/28 08:08:08;;;;;;;20.40;15.40;;;;;;;9.58;88.73;98281.06;5092343;28;20482;-71
2022/09/28 08:10:35;;;;;;;23.10;15.50;;;;;;;9.40;89.23;98272.56;5097537;28;21096;-71
2022/09/28 08:13:02;;;;;;;21.40;15.73;;;;;;;9.43;89.28;98280.22;5098846;28;20439;-68
2022/09/28 08:15:32;;;;;;;19.10;13.97;;;;;;;9.54;89.32;98277.09;5100876;28;20469;-70
2022/09/28 08:17:59;;;;;;;22.87;14.73;;;;;;;9.70;88.96;98280.59;5100942;28;20450;-71
2022/09/28 08:23:12;;;;;;;21.20;14.00;;;;;;;10.14;88.14;98282.44;5102605;28;20469;-72
2022/09/28 08:25:38;;;;;;;21.93;14.50;;;;;;;10.17;87.23;98290.06;5102395;28;20490;-71
2022/09/28 08:28:06;;;;;;;18.33;15.03;;;;;;;9.84;87.81;98294.97;5102980;28;20431;-68
2022/09/28 08:30:33;;;;;;;21.77;14.80;;;;;;;9.75;87.03;98297.72;5101558;28;20546;-72
2022/09/28 08:32:59;;;;;;;18.00;13.40;;;;;;;9.87;87.15;98294.59;5101842;28;20455;-69
2022/09/28 08:35:27;;;;;;;22.30;15.57;;;;;;;9.65;87.88;98302.47;5102324;28;23491;-72
2022/09/28 08:37:54;;;;;;;20.77;14.77;;;;;;;9.66;88.78;98298.00;5101057;28;21154;-71
2022/09/28 08:40:23;;;;;;;19.00;13.87;;;;;;;9.68;87.91;98302.13;5101808;28;20507;-71
2022/09/28 08:42:52;;;;;;;21.67;14.13;;;;;;;9.84;87.65;98308.31;5103069;28;20427;-72
2022/09/28 08:45:21;;;;;;;20.10;14.27;;;;;;;9.79;88.15;98317.69;5101199;28;20716;-71
2022/09/28 08:50:42;;;;;;;19.30;14.20;;;;;;;9.67;88.01;98311.16;5101429;28;20489;-67
2022/09/28 08:53:21;;;;;;;17.63;13.20;;;;;;;9.75;87.84;98312.91;5101660;28;20827;-69
2022/09/28 08:55:48;;;;;;;18.60;13.33;;;;;;;9.60;87.25;98311.06;5100487;28;20466;-68
2022/09/28 08:58:18;;;;;;;17.43;13.27;;;;;;;9.94;87.30;98323.03;5101419;28;20428;-69
2022/09/28 09:00:47;;;;;;;20.37;13.90;;;;;;;10.08;85.69;98321.38;5100646;28;20501;-69
2022/09/28 09:03:16;;;;;;;15.00;12.20;;;;;;;10.04;84.88;98319.28;5101305;28;20459;-69
2022/09/28 09:05:52;;;;;;;17.63;11.70;;;;;;;10.15;84.66;98324.94;5100067;28;20471;-69
2022/09/28 09:08:30;;;;;;;15.70;11.30;;;;;;;10.29;85.37;98319.78;5100826;28;20498;-69
2022/09/28 09:11:03;;;;;;;14.23;11.80;;;;;;;10.47;83.27;98333.63;5100969;28;20475;-69
2022/09/28 09:14:05;;;;;;;20.50;11.70;;;;;;;10.27;84.11;98335.19;5101026;28;20420;-67
2022/09/28 09:16:40;;;;;;;14.03;10.60;;;;;;;10.49;83.21;98333.44;5100387;28;20474;-69
2022/09/28 09:19:13;;;;;;;16.13;10.70;;;;;;;10.40;82.02;98338.06;5100927;28;20474;-70
2022/09/28 09:21:42;;;;;;;14.17;9.80;;;;;;;10.58;82.17;98340.31;5099980;28;20476;-68
2022/09/28 09:24:23;;;;;;;15.10;10.03;;;;;;;10.68;81.96;98335.50;5101255;28;20474;-68
2022/09/28 09:26:56;;;;;;;16.77;10.63;;;;;;;11.43;79.23;98332.53;5099945;28;20721;-70
2022/09/28 09:29:32;;;;;;;11.33;9.10;;;;;;;11.29;77.31;98340.44;5100603;28;20752;-68
2022/09/28 09:32:31;;;;;;;9.83;8.10;;;;;;;11.82;77.05;98344.53;5099603;28;20470;-69
2022/09/28 09:35:18;;;;;;;10.93;8.90;;;;;;;11.82;76.43;98344.53;5101205;28;20455;-68
2022/09/28 09:37:59;;;;;;;13.10;9.20;;;;;;;12.24;74.81;98340.09;5100324;28;20914;-69
2022/09/28 09:40:45;;;;;;;11.17;8.77;;;;;;;13.05;72.84;98333.97;5099713;28;20544;-66
2022/09/28 09:43:31;;;;;;;9.30;7.80;;;;;;;13.39;69.59;98342.94;5100693;28;20431;-69
2022/09/28 09:46:05;;;;;;;7.60;6.90;;;;;;;13.26;68.57;98353.63;5099856;28;20475;-69
2022/09/28 09:48:36;;;;;;;8.23;6.60;;;;;;;12.97;69.99;98348.41;5100107;28;20477;-70
2022/09/28 09:51:06;;;;;;;7.93;6.53;;;;;;;13.99;66.60;98342.91;5099358;28;20487;-67
2022/09/28 09:53:37;;;;;;;7.17;6.40;;;;;;;13.08;69.07;98352.34;5100323;28;20873;-70
2022/09/28 09:56:11;;;;;;;9.30;6.47;;;;;;;13.14;68.78;98356.91;5100664;28;20467;-70
2022/09/28 09:58:41;;;;;;;7.83;6.33;;;;;;;13.26;68.86;98364.34;5100595;28;20439;-69
2022/09/28 10:01:12;;;;;;;7.50;6.70;;;;;;;12.78;69.73;98360.75;5100034;28;20498;-70
2022/09/28 10:03:41;;;;;;;8.50;6.10;;;;;;;12.68;70.89;98357.59;5100300;28;20509;-68
2022/09/28 10:06:11;;;;;;;10.73;7.30;;;;;;;12.39;72.61;98356.88;5099590;28;20499;-69
2022/09/28 10:08:41;;;;;;;8.87;6.47;;;;;;;12.61;70.47;98357.56;5060773;28;20480;-71
2022/09/28 10:11:11;;;;;;;7.00;6.30;;;;;;;12.29;71.46;98353.75;5059676;28;20523;-71
2022/09/28 10:13:39;;;;;;;10.50;6.53;;;;;;;12.19;71.91;98353.28;5058005;28;20493;-70
2022/09/28 10:16:06;;;;;;;8.20;6.47;;;;;;;12.07;72.06;98357.53;5050422;28;20477;-68
2022/09/28 10:18:33;;;;;;;7.70;6.90;;;;;;;11.69;72.02;98359.50;5047757;28;20587;-70
2022/09/28 10:21:00;;;;;;;8.10;6.67;;;;;;;11.52;73.17;98368.00;5059170;28;20481;-70
2022/09/28 10:23:28;;;;;;;10.90;6.23;;;;;;;11.25;75.09;98363.25;5060582;28;20453;-69
2022/09/28 10:26:00;;;;;;;8.97;7.50;;;;;;;11.38;74.46;98373.22;5059687;28;20473;-71
2022/09/28 10:28:34;;;;;;;8.70;7.67;;;;;;;11.72;73.94;98368.16;5060013;28;20512;-71
2022/09/28 10:31:02;;;;;;;7.80;6.97;;;;;;;11.97;73.48;98361.38;5059343;28;20477;-70
2022/09/28 10:33:30;;;;;;;7.40;6.60;;;;;;;12.02;73.69;98363.47;5059458;28;20503;-70
2022/09/28 10:35:58;;;;;;;8.83;7.37;;;;;;;11.79;72.72;98377.91;5057804;28;20470;-70
2022/09/28 10:38:29;;;;;;;10.97;7.93;;;;;;;11.94;72.43;98379.69;5060356;28;20465;-69
2022/09/28 10:40:59;;;;;;;9.90;7.97;;;;;;;11.66;75.16;98369.75;5058698;28;20542;-70
2022/09/28 10:43:27;;;;;;;11.20;7.87;;;;;;;11.69;74.46;98375.56;5059898;28;20433;-70
2022/09/28 10:46:01;;;;;;;13.43;8.93;;;;;;;11.72;74.88;98377.03;5059472;28;20489;-71
2022/09/28 10:48:28;;;;;;;12.60;8.50;;;;;;;11.76;75.50;98380.97;5058689;28;20460;-70
2022/09/28 10:51:00;;;;;;;8.93;7.43;;;;;;;12.33;71.90;98376.41;5058276;28;20501;-71
2022/09/28 10:53:27;;;;;;;9.23;6.23;;;;;;;12.26;69.91;98378.25;5059379;28;20425;-71
2022/09/28 10:56:07;;;;;;;6.40;5.30;;;;;;;12.13;68.32;98386.19;5058834;28;20480;-71
2022/09/28 10:58:38;;;;;;;9.00;5.90;;;;;;;12.27;68.36;98377.19;5058693;28;20442;-71
2022/09/28 11:01:08;;;;;;;10.10;6.00;;;;;;;11.95;71.46;98386.69;5058428;28;20473;-69
2022/09/28 11:03:47;;;;;;;7.33;6.27;;;;;;;12.16;70.04;98375.91;5058720;28;20457;-68
2022/09/28 11:06:14;;;;;;;9.60;6.33;;;;;;;12.66;70.01;98393.69;5058970;28;20468;-70
2022/09/28 11:08:42;;;;;;;5.07;4.10;;;;;;;11.49;71.07;98393.28;5099143;28;20462;-71
2022/09/28 11:11:12;;;;;;;4.13;3.73;;;;;;;10.99;73.94;98398.56;5098496;28;20528;-71
2022/09/28 11:13:44;;;;;;;5.07;3.90;;;;;;;11.09;73.88;98395.56;5098888;28;20460;-71
2022/09/28 11:16:27;;;;;;;5.80;3.83;;;;;;;10.82;76.35;98397.16;5098519;28;20479;-71
2022/09/28 11:18:54;;;;;;;4.27;3.70;;;;;;;11.00;77.67;98394.03;5098027;28;20487;-71
2022/09/28 11:21:23;;;;;;;4.27;3.87;;;;;;;11.03;77.22;98399.03;5098601;28;20529;-71
2022/09/28 11:24:04;;;;;;;6.00;4.70;;;;;;;10.96;76.63;98406.16;5099076;28;20461;-72
2022/09/28 11:26:40;;;;;;;7.37;5.57;;;;;;;10.40;79.12;98407.50;5097449;28;20478;-72
2022/09/28 11:29:18;;;;;;;9.00;6.20;;;;;;;10.18;80.97;98404.69;5099486;28;20525;-71
2022/09/28 11:31:46;;;;;;;6.40;5.63;;;;;;;10.05;82.00;98404.53;5097511;28;20470;-72
2022/09/28 11:34:16;;;;;;;6.60;5.47;;;;;;;9.60;83.29;98407.09;5098752;28;20478;-72
2022/09/28 11:36:57;;;;;;;6.30;5.70;;;;;;;10.02;84.61;98412.91;5097169;28;20486;-72
2022/09/28 11:39:29;;;;;;;6.40;5.00;;;;;;;10.20;83.69;98414.38;5099422;28;20467;-73
2022/09/28 11:42:05;;;;;;;6.77;5.17;;;;;;;10.32;81.94;98416.44;5097230;28;20483;-72
2022/09/28 11:44:43;;;;;;;5.83;4.57;;;;;;;9.86;82.05;98413.03;5098651;28;20457;-70
2022/09/28 11:47:33;;;;;;;6.90;5.13;;;;;;;10.09;82.00;98415.66;5097898;28;20475;-72
2022/09/28 11:50:03;;;;;;;5.13;4.23;;;;;;;10.98;80.19;98420.16;5091719;28;20459;-71
2022/09/28 11:52:34;;;;;;;6.57;5.60;;;;;;;11.15;78.70;98418.09;5102637;28;20479;-69
2022/09/28 11:55:05;;;;;;;5.90;4.13;;;;;;;11.24;77.52;98425.78;5102106;28;20452;-72